<?xml version="1.0" encoding="utf-8"?>
<gpx xmlns:xsi="http://www.w3.org/2001/XMLSchema-instance" xmlns:xsd="http://www.w3.org/2001/XMLSchema" version="1.1" creator="Shapelink.com" xmlns="http://www.topografix.com/GPX/1/1" xmlns:gpxtpx="http://www.garmin.com/xmlschemas/TrackPointExtension/v1">
  <metadata>
    <name>Nordic Skiing 8.40 km, 2016-02-21</name>
    <desc></desc>
    <author><name>Stefan Östlund</name></author> 
    <time>2016-02-21T11:26:26Z</time>
  </metadata>
  <trk>
    <name>Nordic Skiing 8.40 km, 2016-02-21</name>
    <trkseg>
      <trkpt lat="60.004398442151" lon="15.771687554427">
        <ele>105</ele>
        <time>2016-02-21T11:26:26Z</time>
      </trkpt>
      <trkpt lat="60.004381007799" lon="15.771729799203">
        <ele>105</ele>
        <time>2016-02-21T11:26:28Z</time>
      </trkpt>
      <trkpt lat="60.00441780434" lon="15.772034062173">
        <ele>104.8</ele>
        <time>2016-02-21T11:26:34Z</time>
      </trkpt>
      <trkpt lat="60.004419983634" lon="15.772242520026">
        <ele>104</ele>
        <time>2016-02-21T11:26:36Z</time>
      </trkpt>
      <trkpt lat="60.004412272286" lon="15.772373277666">
        <ele>103.4</ele>
        <time>2016-02-21T11:26:37Z</time>
      </trkpt>
      <trkpt lat="60.004397436323" lon="15.772510321731">
        <ele>102.2</ele>
        <time>2016-02-21T11:26:38Z</time>
      </trkpt>
      <trkpt lat="60.004375643383" lon="15.772641247009">
        <ele>101.2</ele>
        <time>2016-02-21T11:26:39Z</time>
      </trkpt>
      <trkpt lat="60.004343792163" lon="15.772763455111">
        <ele>100.6</ele>
        <time>2016-02-21T11:26:40Z</time>
      </trkpt>
      <trkpt lat="60.004305905975" lon="15.772881472263">
        <ele>99.8</ele>
        <time>2016-02-21T11:26:41Z</time>
      </trkpt>
      <trkpt lat="60.004264750846" lon="15.772984569633">
        <ele>99.2</ele>
        <time>2016-02-21T11:26:42Z</time>
      </trkpt>
      <trkpt lat="60.004226948477" lon="15.773078027818">
        <ele>98.6</ele>
        <time>2016-02-21T11:26:43Z</time>
      </trkpt>
      <trkpt lat="60.004192834144" lon="15.773154470746">
        <ele>98</ele>
        <time>2016-02-21T11:26:44Z</time>
      </trkpt>
      <trkpt lat="60.004147404246" lon="15.773207444354">
        <ele>97.6</ele>
        <time>2016-02-21T11:26:45Z</time>
      </trkpt>
      <trkpt lat="60.004031985483" lon="15.773273493726">
        <ele>97</ele>
        <time>2016-02-21T11:26:48Z</time>
      </trkpt>
      <trkpt lat="60.003906005526" lon="15.773207360535">
        <ele>98.2</ele>
        <time>2016-02-21T11:26:54Z</time>
      </trkpt>
      <trkpt lat="60.00387549541" lon="15.772984485814">
        <ele>99.4</ele>
        <time>2016-02-21T11:27:00Z</time>
      </trkpt>
      <trkpt lat="60.003813217893" lon="15.772534629241">
        <ele>100.6</ele>
        <time>2016-02-21T11:27:10Z</time>
      </trkpt>
      <trkpt lat="60.003808188753" lon="15.772318711497">
        <ele>101.6</ele>
        <time>2016-02-21T11:27:15Z</time>
      </trkpt>
      <trkpt lat="60.00379335279" lon="15.771972539027">
        <ele>102.6</ele>
        <time>2016-02-21T11:27:23Z</time>
      </trkpt>
      <trkpt lat="60.003893600314" lon="15.771616559734">
        <ele>103.8</ele>
        <time>2016-02-21T11:27:33Z</time>
      </trkpt>
      <trkpt lat="60.00400457667" lon="15.771350434409">
        <ele>105</ele>
        <time>2016-02-21T11:27:41Z</time>
      </trkpt>
      <trkpt lat="60.004083198892" lon="15.771096630477">
        <ele>105.8</ele>
        <time>2016-02-21T11:27:48Z</time>
      </trkpt>
      <trkpt lat="60.004082360702" lon="15.771054888615">
        <ele>106</ele>
        <time>2016-02-21T11:27:49Z</time>
      </trkpt>
      <trkpt lat="60.004097280484" lon="15.770831678618">
        <ele>107</ele>
        <time>2016-02-21T11:27:55Z</time>
      </trkpt>
      <trkpt lat="60.004099962692" lon="15.770730509085">
        <ele>108.2</ele>
        <time>2016-02-21T11:27:58Z</time>
      </trkpt>
      <trkpt lat="60.004085545824" lon="15.770338487622">
        <ele>109.4</ele>
        <time>2016-02-21T11:28:10Z</time>
      </trkpt>
      <trkpt lat="60.004081103417" lon="15.77031434775">
        <ele>109.8</ele>
        <time>2016-02-21T11:28:11Z</time>
      </trkpt>
      <trkpt lat="60.00400038572" lon="15.770227259809">
        <ele>110.6</ele>
        <time>2016-02-21T11:28:15Z</time>
      </trkpt>
      <trkpt lat="60.003791760229" lon="15.770258440477">
        <ele>111.8</ele>
        <time>2016-02-21T11:28:26Z</time>
      </trkpt>
      <trkpt lat="60.00377072166" lon="15.770269504585">
        <ele>112</ele>
        <time>2016-02-21T11:28:27Z</time>
      </trkpt>
      <trkpt lat="60.003732081101" lon="15.770300349977">
        <ele>111.8</ele>
        <time>2016-02-21T11:28:29Z</time>
      </trkpt>
      <trkpt lat="60.003687237936" lon="15.770323903116">
        <ele>112</ele>
        <time>2016-02-21T11:28:32Z</time>
      </trkpt>
      <trkpt lat="60.003381047129" lon="15.77049036765">
        <ele>112.8</ele>
        <time>2016-02-21T11:28:47Z</time>
      </trkpt>
      <trkpt lat="60.003294797378" lon="15.770591285726">
        <ele>113.8</ele>
        <time>2016-02-21T11:28:52Z</time>
      </trkpt>
      <trkpt lat="60.00327535137" lon="15.770611402286">
        <ele>114</ele>
        <time>2016-02-21T11:28:53Z</time>
      </trkpt>
      <trkpt lat="60.003187592877" lon="15.770707291222">
        <ele>115</ele>
        <time>2016-02-21T11:28:58Z</time>
      </trkpt>
      <trkpt lat="60.003000927964" lon="15.770848777694">
        <ele>116</ele>
        <time>2016-02-21T11:29:08Z</time>
      </trkpt>
      <trkpt lat="60.002988187476" lon="15.770841150165">
        <ele>116</ele>
        <time>2016-02-21T11:29:09Z</time>
      </trkpt>
      <trkpt lat="60.002969579658" lon="15.770839725242">
        <ele>116.2</ele>
        <time>2016-02-21T11:29:10Z</time>
      </trkpt>
      <trkpt lat="60.00283613981" lon="15.770791864593">
        <ele>117</ele>
        <time>2016-02-21T11:29:16Z</time>
      </trkpt>
      <trkpt lat="60.002753913371" lon="15.770775100793">
        <ele>117</ele>
        <time>2016-02-21T11:29:20Z</time>
      </trkpt>
      <trkpt lat="60.002610582881" lon="15.770633111407">
        <ele>118.2</ele>
        <time>2016-02-21T11:29:28Z</time>
      </trkpt>
      <trkpt lat="60.00254444969" lon="15.770539653222">
        <ele>119.4</ele>
        <time>2016-02-21T11:29:32Z</time>
      </trkpt>
      <trkpt lat="60.002403047037" lon="15.770501096482">
        <ele>120.2</ele>
        <time>2016-02-21T11:29:38Z</time>
      </trkpt>
      <trkpt lat="60.002231385725" lon="15.770524565802">
        <ele>120.4</ele>
        <time>2016-02-21T11:29:45Z</time>
      </trkpt>
      <trkpt lat="60.00176996213" lon="15.770577874686">
        <ele>120.4</ele>
        <time>2016-02-21T11:30:02Z</time>
      </trkpt>
      <trkpt lat="60.001519091863" lon="15.770668818301">
        <ele>120.6</ele>
        <time>2016-02-21T11:30:11Z</time>
      </trkpt>
      <trkpt lat="60.001315579331" lon="15.770695640381">
        <ele>121.2</ele>
        <time>2016-02-21T11:30:19Z</time>
      </trkpt>
      <trkpt lat="60.001280123894" lon="15.770707961774">
        <ele>121.4</ele>
        <time>2016-02-21T11:30:21Z</time>
      </trkpt>
      <trkpt lat="60.001241567154" lon="15.770729000343">
        <ele>121.6</ele>
        <time>2016-02-21T11:30:23Z</time>
      </trkpt>
      <trkpt lat="60.001119945785" lon="15.770825224555">
        <ele>122.6</ele>
        <time>2016-02-21T11:30:28Z</time>
      </trkpt>
      <trkpt lat="60.001097817569" lon="15.770831762437">
        <ele>122.6</ele>
        <time>2016-02-21T11:30:29Z</time>
      </trkpt>
      <trkpt lat="60.000969071585" lon="15.770856321404">
        <ele>121.8</ele>
        <time>2016-02-21T11:30:42Z</time>
      </trkpt>
      <trkpt lat="60.000916181796" lon="15.77081558537">
        <ele>122.2</ele>
        <time>2016-02-21T11:30:45Z</time>
      </trkpt>
      <trkpt lat="60.000959348581" lon="15.770321472365">
        <ele>123.6</ele>
        <time>2016-02-21T11:30:54Z</time>
      </trkpt>
      <trkpt lat="60.001027493428" lon="15.770026345666">
        <ele>124.8</ele>
        <time>2016-02-21T11:31:00Z</time>
      </trkpt>
      <trkpt lat="60.001106702383" lon="15.769579925672">
        <ele>125.8</ele>
        <time>2016-02-21T11:31:10Z</time>
      </trkpt>
      <trkpt lat="60.001270819985" lon="15.768691276634">
        <ele>126.4</ele>
        <time>2016-02-21T11:31:26Z</time>
      </trkpt>
      <trkpt lat="60.001408869878" lon="15.767834059721">
        <ele>126.2</ele>
        <time>2016-02-21T11:31:39Z</time>
      </trkpt>
      <trkpt lat="60.00144642079" lon="15.767740098622">
        <ele>127</ele>
        <time>2016-02-21T11:31:42Z</time>
      </trkpt>
      <trkpt lat="60.001487911195" lon="15.767773710041">
        <ele>127.8</ele>
        <time>2016-02-21T11:31:45Z</time>
      </trkpt>
      <trkpt lat="60.001626296364" lon="15.76803614733">
        <ele>128</ele>
        <time>2016-02-21T11:31:53Z</time>
      </trkpt>
      <trkpt lat="60.00165261553" lon="15.768092892793">
        <ele>129.4</ele>
        <time>2016-02-21T11:31:55Z</time>
      </trkpt>
      <trkpt lat="60.001868700912" lon="15.768896297908">
        <ele>128.6</ele>
        <time>2016-02-21T11:32:10Z</time>
      </trkpt>
      <trkpt lat="60.001909269308" lon="15.769047172108">
        <ele>128.4</ele>
        <time>2016-02-21T11:32:13Z</time>
      </trkpt>
      <trkpt lat="60.00198370058" lon="15.769396445881">
        <ele>127.4</ele>
        <time>2016-02-21T11:32:18Z</time>
      </trkpt>
      <trkpt lat="60.002055533463" lon="15.769681179024">
        <ele>126</ele>
        <time>2016-02-21T11:32:21Z</time>
      </trkpt>
      <trkpt lat="60.00210020899" lon="15.769914028206">
        <ele>125</ele>
        <time>2016-02-21T11:32:23Z</time>
      </trkpt>
      <trkpt lat="60.00217564609" lon="15.770140674782">
        <ele>124</ele>
        <time>2016-02-21T11:32:25Z</time>
      </trkpt>
      <trkpt lat="60.002250999371" lon="15.770213178217">
        <ele>123.6</ele>
        <time>2016-02-21T11:32:26Z</time>
      </trkpt>
      <trkpt lat="60.002302799513" lon="15.770288782955">
        <ele>122.8</ele>
        <time>2016-02-21T11:32:27Z</time>
      </trkpt>
      <trkpt lat="60.002372956016" lon="15.770363549503">
        <ele>122.2</ele>
        <time>2016-02-21T11:32:28Z</time>
      </trkpt>
      <trkpt lat="60.002578396385" lon="15.770439070422">
        <ele>120.8</ele>
        <time>2016-02-21T11:32:31Z</time>
      </trkpt>
      <trkpt lat="60.002673447131" lon="15.770470921642">
        <ele>120.2</ele>
        <time>2016-02-21T11:32:33Z</time>
      </trkpt>
      <trkpt lat="60.002796074328" lon="15.770476034601">
        <ele>119.6</ele>
        <time>2016-02-21T11:32:35Z</time>
      </trkpt>
      <trkpt lat="60.002923646846" lon="15.770438567508">
        <ele>118.6</ele>
        <time>2016-02-21T11:32:37Z</time>
      </trkpt>
      <trkpt lat="60.002980979042" lon="15.770400429863">
        <ele>118.4</ele>
        <time>2016-02-21T11:32:38Z</time>
      </trkpt>
      <trkpt lat="60.003029929338" lon="15.770349048816">
        <ele>118.2</ele>
        <time>2016-02-21T11:32:39Z</time>
      </trkpt>
      <trkpt lat="60.00311190432" lon="15.770227511266">
        <ele>116.4</ele>
        <time>2016-02-21T11:32:41Z</time>
      </trkpt>
      <trkpt lat="60.003148449404" lon="15.770164479378">
        <ele>115.2</ele>
        <time>2016-02-21T11:32:42Z</time>
      </trkpt>
      <trkpt lat="60.003183234289" lon="15.770105051707">
        <ele>114.4</ele>
        <time>2016-02-21T11:32:43Z</time>
      </trkpt>
      <trkpt lat="60.003235537345" lon="15.769996841378">
        <ele>114.2</ele>
        <time>2016-02-21T11:32:44Z</time>
      </trkpt>
      <trkpt lat="60.00321583988" lon="15.769734990822">
        <ele>115.6</ele>
        <time>2016-02-21T11:32:48Z</time>
      </trkpt>
      <trkpt lat="60.003172002543" lon="15.769649243985">
        <ele>116.8</ele>
        <time>2016-02-21T11:32:50Z</time>
      </trkpt>
      <trkpt lat="60.003125818274" lon="15.769497280138">
        <ele>118</ele>
        <time>2016-02-21T11:32:54Z</time>
      </trkpt>
      <trkpt lat="60.003012494986" lon="15.768964526574">
        <ele>117</ele>
        <time>2016-02-21T11:33:03Z</time>
      </trkpt>
      <trkpt lat="60.002951223297" lon="15.768633944438">
        <ele>117.8</ele>
        <time>2016-02-21T11:33:14Z</time>
      </trkpt>
      <trkpt lat="60.002971256038" lon="15.768431186277">
        <ele>118</ele>
        <time>2016-02-21T11:33:18Z</time>
      </trkpt>
      <trkpt lat="60.002991540236" lon="15.768246449201">
        <ele>119.2</ele>
        <time>2016-02-21T11:33:22Z</time>
      </trkpt>
      <trkpt lat="60.003017524126" lon="15.76809901158">
        <ele>120.2</ele>
        <time>2016-02-21T11:33:25Z</time>
      </trkpt>
      <trkpt lat="60.003191616189" lon="15.76743265053">
        <ele>119.2</ele>
        <time>2016-02-21T11:33:37Z</time>
      </trkpt>
      <trkpt lat="60.003237046087" lon="15.76738822646">
        <ele>118.8</ele>
        <time>2016-02-21T11:33:38Z</time>
      </trkpt>
      <trkpt lat="60.003346262244" lon="15.767328798789">
        <ele>117.8</ele>
        <time>2016-02-21T11:33:40Z</time>
      </trkpt>
      <trkpt lat="60.003504512516" lon="15.767320416889">
        <ele>116.4</ele>
        <time>2016-02-21T11:33:43Z</time>
      </trkpt>
      <trkpt lat="60.003601910194" lon="15.767393339419">
        <ele>115.6</ele>
        <time>2016-02-21T11:33:45Z</time>
      </trkpt>
      <trkpt lat="60.003640634572" lon="15.767434075453">
        <ele>115</ele>
        <time>2016-02-21T11:33:46Z</time>
      </trkpt>
      <trkpt lat="60.003672066697" lon="15.767492664934">
        <ele>114.4</ele>
        <time>2016-02-21T11:33:47Z</time>
      </trkpt>
      <trkpt lat="60.003702157718" lon="15.767536083176">
        <ele>113.8</ele>
        <time>2016-02-21T11:33:48Z</time>
      </trkpt>
      <trkpt lat="60.003709617609" lon="15.76762040509">
        <ele>112</ele>
        <time>2016-02-21T11:33:50Z</time>
      </trkpt>
      <trkpt lat="60.003707941229" lon="15.767672875784">
        <ele>110.8</ele>
        <time>2016-02-21T11:33:52Z</time>
      </trkpt>
      <trkpt lat="60.003859988895" lon="15.767667427549">
        <ele>110.8</ele>
        <time>2016-02-21T11:34:08Z</time>
      </trkpt>
      <trkpt lat="60.003873986668" lon="15.767707493031">
        <ele>110.8</ele>
        <time>2016-02-21T11:34:10Z</time>
      </trkpt>
      <trkpt lat="60.003888990269" lon="15.76774110445">
        <ele>110.6</ele>
        <time>2016-02-21T11:34:12Z</time>
      </trkpt>
      <trkpt lat="60.003895192875" lon="15.767768848539">
        <ele>110.6</ele>
        <time>2016-02-21T11:34:13Z</time>
      </trkpt>
      <trkpt lat="60.00390734663" lon="15.767970684691">
        <ele>109.8</ele>
        <time>2016-02-21T11:34:19Z</time>
      </trkpt>
      <trkpt lat="60.003916482901" lon="15.768065903075">
        <ele>109.6</ele>
        <time>2016-02-21T11:34:21Z</time>
      </trkpt>
      <trkpt lat="60.003920841489" lon="15.768141507813">
        <ele>110</ele>
        <time>2016-02-21T11:34:27Z</time>
      </trkpt>
      <trkpt lat="60.003975323839" lon="15.768509473223">
        <ele>110.8</ele>
        <time>2016-02-21T11:34:36Z</time>
      </trkpt>
      <trkpt lat="60.004016478968" lon="15.768652049342">
        <ele>112</ele>
        <time>2016-02-21T11:34:41Z</time>
      </trkpt>
      <trkpt lat="60.004034667691" lon="15.768741232758">
        <ele>113</ele>
        <time>2016-02-21T11:34:44Z</time>
      </trkpt>
      <trkpt lat="60.004075906639" lon="15.768846844698">
        <ele>113.2</ele>
        <time>2016-02-21T11:34:48Z</time>
      </trkpt>
      <trkpt lat="60.004131897731" lon="15.768874002054">
        <ele>113.4</ele>
        <time>2016-02-21T11:34:50Z</time>
      </trkpt>
      <trkpt lat="60.004288471623" lon="15.7689690528">
        <ele>114</ele>
        <time>2016-02-21T11:34:59Z</time>
      </trkpt>
      <trkpt lat="60.004615365723" lon="15.769071395799">
        <ele>112</ele>
        <time>2016-02-21T11:35:12Z</time>
      </trkpt>
      <trkpt lat="60.00471117084" lon="15.769023786607">
        <ele>111.6</ele>
        <time>2016-02-21T11:35:14Z</time>
      </trkpt>
      <trkpt lat="60.004819045893" lon="15.76891289407">
        <ele>110.6</ele>
        <time>2016-02-21T11:35:16Z</time>
      </trkpt>
      <trkpt lat="60.004885346722" lon="15.768859333729">
        <ele>110.2</ele>
        <time>2016-02-21T11:35:17Z</time>
      </trkpt>
      <trkpt lat="60.004948797705" lon="15.768808539415">
        <ele>109.4</ele>
        <time>2016-02-21T11:35:18Z</time>
      </trkpt>
      <trkpt lat="60.005010823765" lon="15.768770820865">
        <ele>108.6</ele>
        <time>2016-02-21T11:35:19Z</time>
      </trkpt>
      <trkpt lat="60.005073352739" lon="15.768758750929">
        <ele>108.2</ele>
        <time>2016-02-21T11:35:20Z</time>
      </trkpt>
      <trkpt lat="60.005129343831" lon="15.768738969645">
        <ele>107.6</ele>
        <time>2016-02-21T11:35:21Z</time>
      </trkpt>
      <trkpt lat="60.005187681855" lon="15.76876537263">
        <ele>107</ele>
        <time>2016-02-21T11:35:22Z</time>
      </trkpt>
      <trkpt lat="60.005238140893" lon="15.768816753677">
        <ele>106.4</ele>
        <time>2016-02-21T11:35:23Z</time>
      </trkpt>
      <trkpt lat="60.005285666266" lon="15.768875343158">
        <ele>106</ele>
        <time>2016-02-21T11:35:24Z</time>
      </trkpt>
      <trkpt lat="60.005370071999" lon="15.768993192672">
        <ele>104.8</ele>
        <time>2016-02-21T11:35:26Z</time>
      </trkpt>
      <trkpt lat="60.005411143309" lon="15.769039544579">
        <ele>104.2</ele>
        <time>2016-02-21T11:35:27Z</time>
      </trkpt>
      <trkpt lat="60.005459423053" lon="15.769077598405">
        <ele>103.6</ele>
        <time>2016-02-21T11:35:28Z</time>
      </trkpt>
      <trkpt lat="60.005558329473" lon="15.769140797931">
        <ele>102.8</ele>
        <time>2016-02-21T11:35:30Z</time>
      </trkpt>
      <trkpt lat="60.005609123787" lon="15.769152113496">
        <ele>102.6</ele>
        <time>2016-02-21T11:35:31Z</time>
      </trkpt>
      <trkpt lat="60.005668802915" lon="15.769140797931">
        <ele>102.2</ele>
        <time>2016-02-21T11:35:32Z</time>
      </trkpt>
      <trkpt lat="60.005765194765" lon="15.769059744958">
        <ele>101.8</ele>
        <time>2016-02-21T11:35:34Z</time>
      </trkpt>
      <trkpt lat="60.005798135632" lon="15.76900090402">
        <ele>101.4</ele>
        <time>2016-02-21T11:35:35Z</time>
      </trkpt>
      <trkpt lat="60.0058293163" lon="15.768871906579">
        <ele>101</ele>
        <time>2016-02-21T11:35:37Z</time>
      </trkpt>
      <trkpt lat="60.005805176428" lon="15.768767719562">
        <ele>100.4</ele>
        <time>2016-02-21T11:35:40Z</time>
      </trkpt>
      <trkpt lat="60.005361773918" lon="15.768707621339">
        <ele>100.6</ele>
        <time>2016-02-21T11:35:55Z</time>
      </trkpt>
      <trkpt lat="60.004924741652" lon="15.768365807457">
        <ele>101.2</ele>
        <time>2016-02-21T11:36:16Z</time>
      </trkpt>
      <trkpt lat="60.00487964703" lon="15.768304284311">
        <ele>101.4</ele>
        <time>2016-02-21T11:36:18Z</time>
      </trkpt>
      <trkpt lat="60.004646462572" lon="15.768000691893">
        <ele>102.4</ele>
        <time>2016-02-21T11:36:30Z</time>
      </trkpt>
      <trkpt lat="60.004410763544" lon="15.767821654509">
        <ele>103.4</ele>
        <time>2016-02-21T11:36:42Z</time>
      </trkpt>
      <trkpt lat="60.004329710571" lon="15.767741439726">
        <ele>104.6</ele>
        <time>2016-02-21T11:36:46Z</time>
      </trkpt>
      <trkpt lat="60.004201802777" lon="15.76759777396">
        <ele>105.6</ele>
        <time>2016-02-21T11:36:54Z</time>
      </trkpt>
      <trkpt lat="60.003922098774" lon="15.767313962826">
        <ele>106.6</ele>
        <time>2016-02-21T11:37:09Z</time>
      </trkpt>
      <trkpt lat="60.003504596335" lon="15.766822112934">
        <ele>105.8</ele>
        <time>2016-02-21T11:37:26Z</time>
      </trkpt>
      <trkpt lat="60.00334911209" lon="15.766672160743">
        <ele>105.6</ele>
        <time>2016-02-21T11:37:30Z</time>
      </trkpt>
      <trkpt lat="60.00297527935" lon="15.766170923123">
        <ele>105.6</ele>
        <time>2016-02-21T11:37:45Z</time>
      </trkpt>
      <trkpt lat="60.002868661582" lon="15.765692484271">
        <ele>105.6</ele>
        <time>2016-02-21T11:37:53Z</time>
      </trkpt>
      <trkpt lat="60.002795152319" lon="15.765288728148">
        <ele>104.2</ele>
        <time>2016-02-21T11:37:57Z</time>
      </trkpt>
      <trkpt lat="60.002602955352" lon="15.764497644426">
        <ele>104</ele>
        <time>2016-02-21T11:38:11Z</time>
      </trkpt>
      <trkpt lat="60.00252014218" lon="15.764411646132">
        <ele>104</ele>
        <time>2016-02-21T11:38:14Z</time>
      </trkpt>
      <trkpt lat="60.00233825495" lon="15.764953116872">
        <ele>104.8</ele>
        <time>2016-02-21T11:38:32Z</time>
      </trkpt>
      <trkpt lat="60.002308415386" lon="15.765032242008">
        <ele>105.4</ele>
        <time>2016-02-21T11:38:37Z</time>
      </trkpt>
      <trkpt lat="60.002265667696" lon="15.765076582259">
        <ele>106.4</ele>
        <time>2016-02-21T11:38:41Z</time>
      </trkpt>
      <trkpt lat="60.002208000224" lon="15.765098542837">
        <ele>106.6</ele>
        <time>2016-02-21T11:38:44Z</time>
      </trkpt>
      <trkpt lat="60.002152679684" lon="15.765151684083">
        <ele>107.6</ele>
        <time>2016-02-21T11:38:48Z</time>
      </trkpt>
      <trkpt lat="60.002018317827" lon="15.765261067878">
        <ele>108.8</ele>
        <time>2016-02-21T11:38:58Z</time>
      </trkpt>
      <trkpt lat="60.002001805484" lon="15.765268108674">
        <ele>109</ele>
        <time>2016-02-21T11:38:59Z</time>
      </trkpt>
      <trkpt lat="60.001907006195" lon="15.765317478065">
        <ele>109.6</ele>
        <time>2016-02-21T11:39:04Z</time>
      </trkpt>
      <trkpt lat="60.001888063101" lon="15.765319741178">
        <ele>109.8</ele>
        <time>2016-02-21T11:39:05Z</time>
      </trkpt>
      <trkpt lat="60.001862833582" lon="15.765316891332">
        <ele>110.2</ele>
        <time>2016-02-21T11:39:07Z</time>
      </trkpt>
      <trkpt lat="60.001840286271" lon="15.765316136961">
        <ele>110.2</ele>
        <time>2016-02-21T11:39:09Z</time>
      </trkpt>
      <trkpt lat="60.001799214961" lon="15.7653229263">
        <ele>111</ele>
        <time>2016-02-21T11:39:13Z</time>
      </trkpt>
      <trkpt lat="60.00177834403" lon="15.76532208811">
        <ele>112</ele>
        <time>2016-02-21T11:39:17Z</time>
      </trkpt>
      <trkpt lat="60.001695027944" lon="15.76528688413">
        <ele>113.2</ele>
        <time>2016-02-21T11:39:26Z</time>
      </trkpt>
      <trkpt lat="60.001658818136" lon="15.765267354303">
        <ele>113.4</ele>
        <time>2016-02-21T11:39:29Z</time>
      </trkpt>
      <trkpt lat="60.00164004268" lon="15.765252099245">
        <ele>113.6</ele>
        <time>2016-02-21T11:39:31Z</time>
      </trkpt>
      <trkpt lat="60.001624703803" lon="15.765231144495">
        <ele>114.4</ele>
        <time>2016-02-21T11:39:33Z</time>
      </trkpt>
      <trkpt lat="60.001478523467" lon="15.765147660771">
        <ele>115.2</ele>
        <time>2016-02-21T11:39:43Z</time>
      </trkpt>
      <trkpt lat="60.001460837658" lon="15.765157719051">
        <ele>115.4</ele>
        <time>2016-02-21T11:39:44Z</time>
      </trkpt>
      <trkpt lat="60.001413982837" lon="15.765239023481">
        <ele>116.4</ele>
        <time>2016-02-21T11:39:49Z</time>
      </trkpt>
      <trkpt lat="60.001388501861" lon="15.765344970697">
        <ele>116.8</ele>
        <time>2016-02-21T11:39:53Z</time>
      </trkpt>
      <trkpt lat="60.001372157156" lon="15.765416049209">
        <ele>117.2</ele>
        <time>2016-02-21T11:39:55Z</time>
      </trkpt>
      <trkpt lat="60.001350783311" lon="15.765516464371">
        <ele>117.6</ele>
        <time>2016-02-21T11:39:58Z</time>
      </trkpt>
      <trkpt lat="60.001336869357" lon="15.765999429449">
        <ele>118.6</ele>
        <time>2016-02-21T11:40:10Z</time>
      </trkpt>
      <trkpt lat="60.001336282624" lon="15.766067155201">
        <ele>119.8</ele>
        <time>2016-02-21T11:40:13Z</time>
      </trkpt>
      <trkpt lat="60.001354890442" lon="15.766175114073">
        <ele>120</ele>
        <time>2016-02-21T11:40:19Z</time>
      </trkpt>
      <trkpt lat="60.00137349826" lon="15.766258513978">
        <ele>120.8</ele>
        <time>2016-02-21T11:40:23Z</time>
      </trkpt>
      <trkpt lat="60.001375845192" lon="15.766281564203">
        <ele>120.8</ele>
        <time>2016-02-21T11:40:24Z</time>
      </trkpt>
      <trkpt lat="60.001400739435" lon="15.766403604667">
        <ele>122.2</ele>
        <time>2016-02-21T11:40:28Z</time>
      </trkpt>
      <trkpt lat="60.001448851541" lon="15.76682663916">
        <ele>123.4</ele>
        <time>2016-02-21T11:40:41Z</time>
      </trkpt>
      <trkpt lat="60.001416078312" lon="15.767592409544">
        <ele>124.4</ele>
        <time>2016-02-21T11:40:56Z</time>
      </trkpt>
      <trkpt lat="60.001376348106" lon="15.768332782771">
        <ele>125</ele>
        <time>2016-02-21T11:41:09Z</time>
      </trkpt>
      <trkpt lat="60.001233269073" lon="15.769035102172">
        <ele>125.4</ele>
        <time>2016-02-21T11:41:23Z</time>
      </trkpt>
      <trkpt lat="60.001058506458" lon="15.769897180587">
        <ele>125.2</ele>
        <time>2016-02-21T11:41:38Z</time>
      </trkpt>
      <trkpt lat="60.001004946117" lon="15.770157103306">
        <ele>124.4</ele>
        <time>2016-02-21T11:41:42Z</time>
      </trkpt>
      <trkpt lat="60.000665060072" lon="15.770395484542">
        <ele>124.4</ele>
        <time>2016-02-21T11:41:59Z</time>
      </trkpt>
      <trkpt lat="60.000590125886" lon="15.770348545902">
        <ele>125.6</ele>
        <time>2016-02-21T11:42:04Z</time>
      </trkpt>
      <trkpt lat="60.000537236097" lon="15.770226840714">
        <ele>126.6</ele>
        <time>2016-02-21T11:42:08Z</time>
      </trkpt>
      <trkpt lat="60.000223585399" lon="15.769742785989">
        <ele>127.8</ele>
        <time>2016-02-21T11:42:26Z</time>
      </trkpt>
      <trkpt lat="60.000200786631" lon="15.769719149031">
        <ele>128.8</ele>
        <time>2016-02-21T11:42:28Z</time>
      </trkpt>
      <trkpt lat="60.000044631834" lon="15.769520162725">
        <ele>130</ele>
        <time>2016-02-21T11:42:38Z</time>
      </trkpt>
      <trkpt lat="59.999895098738" lon="15.769394601863">
        <ele>131</ele>
        <time>2016-02-21T11:42:45Z</time>
      </trkpt>
      <trkpt lat="59.999833575592" lon="15.769271807028">
        <ele>132.2</ele>
        <time>2016-02-21T11:42:49Z</time>
      </trkpt>
      <trkpt lat="59.999634086372" lon="15.7689019976">
        <ele>133.2</ele>
        <time>2016-02-21T11:43:02Z</time>
      </trkpt>
      <trkpt lat="59.999584716981" lon="15.768828991251">
        <ele>133.4</ele>
        <time>2016-02-21T11:43:05Z</time>
      </trkpt>
      <trkpt lat="59.999507603501" lon="15.768614749887">
        <ele>134.4</ele>
        <time>2016-02-21T11:43:12Z</time>
      </trkpt>
      <trkpt lat="59.999467035105" lon="15.7685080483">
        <ele>134.6</ele>
        <time>2016-02-21T11:43:15Z</time>
      </trkpt>
      <trkpt lat="59.999539287083" lon="15.76757849559">
        <ele>133.8</ele>
        <time>2016-02-21T11:43:29Z</time>
      </trkpt>
      <trkpt lat="59.999750510963" lon="15.766777940321">
        <ele>133.6</ele>
        <time>2016-02-21T11:43:41Z</time>
      </trkpt>
      <trkpt lat="59.999847321908" lon="15.766062293699">
        <ele>133.4</ele>
        <time>2016-02-21T11:43:52Z</time>
      </trkpt>
      <trkpt lat="59.999907420131" lon="15.76560371995">
        <ele>132.4</ele>
        <time>2016-02-21T11:43:57Z</time>
      </trkpt>
      <trkpt lat="59.999942791749" lon="15.764894108296">
        <ele>131.2</ele>
        <time>2016-02-21T11:44:11Z</time>
      </trkpt>
      <trkpt lat="59.999832234488" lon="15.76474122244">
        <ele>130.2</ele>
        <time>2016-02-21T11:44:18Z</time>
      </trkpt>
      <trkpt lat="59.999775153749" lon="15.764681543312">
        <ele>130.4</ele>
        <time>2016-02-21T11:44:21Z</time>
      </trkpt>
      <trkpt lat="59.999601816057" lon="15.764242918485">
        <ele>130.2</ele>
        <time>2016-02-21T11:44:32Z</time>
      </trkpt>
      <trkpt lat="59.999681779383" lon="15.763962795387">
        <ele>129.2</ele>
        <time>2016-02-21T11:44:37Z</time>
      </trkpt>
      <trkpt lat="59.999790324988" lon="15.763861039121">
        <ele>128</ele>
        <time>2016-02-21T11:44:40Z</time>
      </trkpt>
      <trkpt lat="59.999832988859" lon="15.763859949474">
        <ele>127.4</ele>
        <time>2016-02-21T11:44:41Z</time>
      </trkpt>
      <trkpt lat="59.99987565273" lon="15.763872773781">
        <ele>127</ele>
        <time>2016-02-21T11:44:42Z</time>
      </trkpt>
      <trkpt lat="59.999994340434" lon="15.763977044617">
        <ele>125.6</ele>
        <time>2016-02-21T11:44:45Z</time>
      </trkpt>
      <trkpt lat="60.000103808048" lon="15.764096989606">
        <ele>124.6</ele>
        <time>2016-02-21T11:44:49Z</time>
      </trkpt>
      <trkpt lat="60.000247222357" lon="15.764270578755">
        <ele>123.6</ele>
        <time>2016-02-21T11:44:54Z</time>
      </trkpt>
      <trkpt lat="60.000417710203" lon="15.764459674419">
        <ele>122.4</ele>
        <time>2016-02-21T11:44:59Z</time>
      </trkpt>
      <trkpt lat="60.000519634107" lon="15.764522371031">
        <ele>121.4</ele>
        <time>2016-02-21T11:45:01Z</time>
      </trkpt>
      <trkpt lat="60.000605380944" lon="15.764553216423">
        <ele>120.6</ele>
        <time>2016-02-21T11:45:02Z</time>
      </trkpt>
      <trkpt lat="60.000742173552" lon="15.764620103985">
        <ele>119.4</ele>
        <time>2016-02-21T11:45:04Z</time>
      </trkpt>
      <trkpt lat="60.000816856281" lon="15.764659498915">
        <ele>118.2</ele>
        <time>2016-02-21T11:45:05Z</time>
      </trkpt>
      <trkpt lat="60.000884162938" lon="15.764700570225">
        <ele>116</ele>
        <time>2016-02-21T11:45:06Z</time>
      </trkpt>
      <trkpt lat="60.00095021231" lon="15.764718758948">
        <ele>114.2</ele>
        <time>2016-02-21T11:45:07Z</time>
      </trkpt>
      <trkpt lat="60.001082478692" lon="15.764699732035">
        <ele>112.8</ele>
        <time>2016-02-21T11:45:09Z</time>
      </trkpt>
      <trkpt lat="60.001147773693" lon="15.764670227747">
        <ele>112.6</ele>
        <time>2016-02-21T11:45:10Z</time>
      </trkpt>
      <trkpt lat="60.001457903993" lon="15.764053236088">
        <ele>112.6</ele>
        <time>2016-02-21T11:45:19Z</time>
      </trkpt>
      <trkpt lat="60.001478439648" lon="15.76398349868">
        <ele>112</ele>
        <time>2016-02-21T11:45:20Z</time>
      </trkpt>
      <trkpt lat="60.001502160425" lon="15.763922059353">
        <ele>111</ele>
        <time>2016-02-21T11:45:21Z</time>
      </trkpt>
      <trkpt lat="60.00153443074" lon="15.763856009981">
        <ele>109.6</ele>
        <time>2016-02-21T11:45:22Z</time>
      </trkpt>
      <trkpt lat="60.001615567532" lon="15.763644702282">
        <ele>108.2</ele>
        <time>2016-02-21T11:45:24Z</time>
      </trkpt>
      <trkpt lat="60.001742385679" lon="15.763544706215">
        <ele>107.4</ele>
        <time>2016-02-21T11:45:26Z</time>
      </trkpt>
      <trkpt lat="60.001867108351" lon="15.763434232773">
        <ele>107.4</ele>
        <time>2016-02-21T11:45:28Z</time>
      </trkpt>
      <trkpt lat="60.001968277884" lon="15.763410344358">
        <ele>107</ele>
        <time>2016-02-21T11:45:30Z</time>
      </trkpt>
      <trkpt lat="60.002053689445" lon="15.763453175867">
        <ele>106</ele>
        <time>2016-02-21T11:45:32Z</time>
      </trkpt>
      <trkpt lat="60.002225602214" lon="15.763669009792">
        <ele>104.8</ele>
        <time>2016-02-21T11:45:37Z</time>
      </trkpt>
      <trkpt lat="60.002583174068" lon="15.764245265417">
        <ele>103.6</ele>
        <time>2016-02-21T11:45:51Z</time>
      </trkpt>
      <trkpt lat="60.00264167973" lon="15.764357415239">
        <ele>103.2</ele>
        <time>2016-02-21T11:45:53Z</time>
      </trkpt>
      <trkpt lat="60.002824153693" lon="15.764992595621">
        <ele>102.6</ele>
        <time>2016-02-21T11:46:03Z</time>
      </trkpt>
      <trkpt lat="60.003038395057" lon="15.765807232482">
        <ele>103.2</ele>
        <time>2016-02-21T11:46:21Z</time>
      </trkpt>
      <trkpt lat="60.003426393208" lon="15.766233703554">
        <ele>102.4</ele>
        <time>2016-02-21T11:46:39Z</time>
      </trkpt>
      <trkpt lat="60.003661421684" lon="15.766548108623">
        <ele>103.6</ele>
        <time>2016-02-21T11:46:54Z</time>
      </trkpt>
      <trkpt lat="60.004036763166" lon="15.767032582443">
        <ele>104.6</ele>
        <time>2016-02-21T11:47:16Z</time>
      </trkpt>
      <trkpt lat="60.00426525376" lon="15.767482606654">
        <ele>103.6</ele>
        <time>2016-02-21T11:47:26Z</time>
      </trkpt>
      <trkpt lat="60.004361897067" lon="15.767614621579">
        <ele>102.2</ele>
        <time>2016-02-21T11:47:29Z</time>
      </trkpt>
      <trkpt lat="60.004487709386" lon="15.767760718096">
        <ele>101</ele>
        <time>2016-02-21T11:47:33Z</time>
      </trkpt>
      <trkpt lat="60.004616036275" lon="15.767921734395">
        <ele>100</ele>
        <time>2016-02-21T11:47:37Z</time>
      </trkpt>
      <trkpt lat="60.004771939615" lon="15.768080990495">
        <ele>98.8</ele>
        <time>2016-02-21T11:47:41Z</time>
      </trkpt>
      <trkpt lat="60.005220287446" lon="15.768435461046">
        <ele>99.6</ele>
        <time>2016-02-21T11:47:53Z</time>
      </trkpt>
      <trkpt lat="60.005674334969" lon="15.76853151762">
        <ele>98.4</ele>
        <time>2016-02-21T11:48:11Z</time>
      </trkpt>
      <trkpt lat="60.005884385383" lon="15.769225790397">
        <ele>99.2</ele>
        <time>2016-02-21T11:48:31Z</time>
      </trkpt>
      <trkpt lat="60.005784808411" lon="15.769947723444">
        <ele>100</ele>
        <time>2016-02-21T11:48:50Z</time>
      </trkpt>
      <trkpt lat="60.005768715163" lon="15.769986112546">
        <ele>101</ele>
        <time>2016-02-21T11:48:53Z</time>
      </trkpt>
      <trkpt lat="60.00571699884" lon="15.770004552726">
        <ele>101.4</ele>
        <time>2016-02-21T11:48:58Z</time>
      </trkpt>
      <trkpt lat="60.005685734353" lon="15.769999691224">
        <ele>102.2</ele>
        <time>2016-02-21T11:49:00Z</time>
      </trkpt>
      <trkpt lat="60.005347859964" lon="15.770001367604">
        <ele>103.2</ele>
        <time>2016-02-21T11:49:15Z</time>
      </trkpt>
      <trkpt lat="60.005316595477" lon="15.770016957938">
        <ele>103.2</ele>
        <time>2016-02-21T11:49:17Z</time>
      </trkpt>
      <trkpt lat="60.005220538903" lon="15.770033889376">
        <ele>103.4</ele>
        <time>2016-02-21T11:49:22Z</time>
      </trkpt>
      <trkpt lat="60.005089362168" lon="15.770055095583">
        <ele>104.2</ele>
        <time>2016-02-21T11:49:28Z</time>
      </trkpt>
      <trkpt lat="60.005071676359" lon="15.770054257393">
        <ele>104.4</ele>
        <time>2016-02-21T11:49:29Z</time>
      </trkpt>
      <trkpt lat="60.005006884272" lon="15.770041433086">
        <ele>104.6</ele>
        <time>2016-02-21T11:49:32Z</time>
      </trkpt>
      <trkpt lat="60.004822063377" lon="15.770166574853">
        <ele>105.2</ele>
        <time>2016-02-21T11:49:42Z</time>
      </trkpt>
      <trkpt lat="60.004809322889" lon="15.770184260662">
        <ele>105.4</ele>
        <time>2016-02-21T11:49:43Z</time>
      </trkpt>
      <trkpt lat="60.004707901899" lon="15.770328345523">
        <ele>106.4</ele>
        <time>2016-02-21T11:49:51Z</time>
      </trkpt>
      <trkpt lat="60.004685689864" lon="15.770363549503">
        <ele>106.4</ele>
        <time>2016-02-21T11:49:53Z</time>
      </trkpt>
      <trkpt lat="60.004273719479" lon="15.770265984187">
        <ele>107.4</ele>
        <time>2016-02-21T11:50:10Z</time>
      </trkpt>
      <trkpt lat="60.004212280152" lon="15.770320382718">
        <ele>107.6</ele>
        <time>2016-02-21T11:50:13Z</time>
      </trkpt>
      <trkpt lat="60.004166934073" lon="15.770393305248">
        <ele>107.8</ele>
        <time>2016-02-21T11:50:15Z</time>
      </trkpt>
      <trkpt lat="60.004113038456" lon="15.770666639007">
        <ele>107.8</ele>
        <time>2016-02-21T11:50:21Z</time>
      </trkpt>
      <trkpt lat="60.004148829169" lon="15.771101994893">
        <ele>106.4</ele>
        <time>2016-02-21T11:50:27Z</time>
      </trkpt>
      <trkpt lat="60.004206999555" lon="15.771265358124">
        <ele>105.8</ele>
        <time>2016-02-21T11:50:29Z</time>
      </trkpt>
      <trkpt lat="60.004272210737" lon="15.771367282028">
        <ele>105.2</ele>
        <time>2016-02-21T11:50:31Z</time>
      </trkpt>
      <trkpt lat="60.004434400502" lon="15.771594934432">
        <ele>103.8</ele>
        <time>2016-02-21T11:58:13Z</time>
      </trkpt>
      <trkpt lat="60.004432556484" lon="15.771554114579">
        <ele>103.4</ele>
        <time>2016-02-21T11:58:23Z</time>
      </trkpt>
      <trkpt lat="60.004434651959" lon="15.771566352153">
        <ele>103.2</ele>
        <time>2016-02-21T11:58:44Z</time>
      </trkpt>
      <trkpt lat="60.00442702443" lon="15.771594599156">
        <ele>103.2</ele>
        <time>2016-02-21T11:58:45Z</time>
      </trkpt>
      <trkpt lat="60.004417133788" lon="15.771655032655">
        <ele>103</ele>
        <time>2016-02-21T11:58:47Z</time>
      </trkpt>
      <trkpt lat="60.004440938384" lon="15.771906824931">
        <ele>102.8</ele>
        <time>2016-02-21T11:58:52Z</time>
      </trkpt>
      <trkpt lat="60.004442698583" lon="15.771989219008">
        <ele>102.6</ele>
        <time>2016-02-21T11:58:53Z</time>
      </trkpt>
      <trkpt lat="60.004437753262" lon="15.772216787593">
        <ele>102.4</ele>
        <time>2016-02-21T11:58:55Z</time>
      </trkpt>
      <trkpt lat="60.004414200123" lon="15.772491043361">
        <ele>101</ele>
        <time>2016-02-21T11:58:57Z</time>
      </trkpt>
      <trkpt lat="60.004388551509" lon="15.772626830141">
        <ele>100</ele>
        <time>2016-02-21T11:58:58Z</time>
      </trkpt>
      <trkpt lat="60.004354269538" lon="15.772750463166">
        <ele>99</ele>
        <time>2016-02-21T11:58:59Z</time>
      </trkpt>
      <trkpt lat="60.00430632507" lon="15.772866887757">
        <ele>98</ele>
        <time>2016-02-21T11:59:00Z</time>
      </trkpt>
      <trkpt lat="60.004255866032" lon="15.772976187733">
        <ele>97.4</ele>
        <time>2016-02-21T11:59:01Z</time>
      </trkpt>
      <trkpt lat="60.004203562976" lon="15.773071909031">
        <ele>97</ele>
        <time>2016-02-21T11:59:02Z</time>
      </trkpt>
      <trkpt lat="60.004112451723" lon="15.773210126562">
        <ele>96.4</ele>
        <time>2016-02-21T11:59:04Z</time>
      </trkpt>
      <trkpt lat="60.004075152268" lon="15.773246587827">
        <ele>96.2</ele>
        <time>2016-02-21T11:59:05Z</time>
      </trkpt>
      <trkpt lat="60.003920170937" lon="15.773246587827">
        <ele>96.8</ele>
        <time>2016-02-21T11:59:11Z</time>
      </trkpt>
      <trkpt lat="60.003897539807" lon="15.773195961151">
        <ele>97.4</ele>
        <time>2016-02-21T11:59:13Z</time>
      </trkpt>
      <trkpt lat="60.003866862053" lon="15.77307283104">
        <ele>98</ele>
        <time>2016-02-21T11:59:17Z</time>
      </trkpt>
      <trkpt lat="60.003857977239" lon="15.772921537745">
        <ele>98.4</ele>
        <time>2016-02-21T11:59:20Z</time>
      </trkpt>
      <trkpt lat="60.003852612823" lon="15.772876107847">
        <ele>98.6</ele>
        <time>2016-02-21T11:59:21Z</time>
      </trkpt>
      <trkpt lat="60.003804835993" lon="15.772642169018">
        <ele>99</ele>
        <time>2016-02-21T11:59:27Z</time>
      </trkpt>
      <trkpt lat="60.003794442437" lon="15.772415270985">
        <ele>99.6</ele>
        <time>2016-02-21T11:59:33Z</time>
      </trkpt>
      <trkpt lat="60.003807853477" lon="15.772025428816">
        <ele>100.6</ele>
        <time>2016-02-21T11:59:41Z</time>
      </trkpt>
      <trkpt lat="60.003805338907" lon="15.771865502164">
        <ele>100.8</ele>
        <time>2016-02-21T11:59:45Z</time>
      </trkpt>
      <trkpt lat="60.003915309435" lon="15.771576913347">
        <ele>102.2</ele>
        <time>2016-02-21T11:59:54Z</time>
      </trkpt>
      <trkpt lat="60.004062160323" lon="15.771253204369">
        <ele>103.2</ele>
        <time>2016-02-21T12:00:04Z</time>
      </trkpt>
      <trkpt lat="60.004098034855" lon="15.770968387407">
        <ele>104.4</ele>
        <time>2016-02-21T12:00:13Z</time>
      </trkpt>
      <trkpt lat="60.004101974348" lon="15.770823045261">
        <ele>104.6</ele>
        <time>2016-02-21T12:00:18Z</time>
      </trkpt>
      <trkpt lat="60.004107757859" lon="15.7705951414">
        <ele>105.6</ele>
        <time>2016-02-21T12:00:25Z</time>
      </trkpt>
      <trkpt lat="60.004092670439" lon="15.770538731213">
        <ele>106.4</ele>
        <time>2016-02-21T12:00:27Z</time>
      </trkpt>
      <trkpt lat="60.004080432865" lon="15.77051299878">
        <ele>106.6</ele>
        <time>2016-02-21T12:00:28Z</time>
      </trkpt>
      <trkpt lat="60.004057634097" lon="15.770418031853">
        <ele>107.2</ele>
        <time>2016-02-21T12:00:31Z</time>
      </trkpt>
      <trkpt lat="60.003986052671" lon="15.77030009852">
        <ele>107.8</ele>
        <time>2016-02-21T12:00:36Z</time>
      </trkpt>
      <trkpt lat="60.003892426848" lon="15.77023807246">
        <ele>108.8</ele>
        <time>2016-02-21T12:00:43Z</time>
      </trkpt>
      <trkpt lat="60.003824030544" lon="15.770254584803">
        <ele>109</ele>
        <time>2016-02-21T12:00:49Z</time>
      </trkpt>
      <trkpt lat="60.003573411734" lon="15.770448290512">
        <ele>109.8</ele>
        <time>2016-02-21T12:01:04Z</time>
      </trkpt>
      <trkpt lat="60.003532508062" lon="15.770469245262">
        <ele>109.8</ele>
        <time>2016-02-21T12:01:06Z</time>
      </trkpt>
      <trkpt lat="60.003432009081" lon="15.770581227446">
        <ele>111</ele>
        <time>2016-02-21T12:01:12Z</time>
      </trkpt>
      <trkpt lat="60.003164877928" lon="15.770737466062">
        <ele>112.2</ele>
        <time>2016-02-21T12:01:24Z</time>
      </trkpt>
      <trkpt lat="60.003103270963" lon="15.770797229009">
        <ele>113.2</ele>
        <time>2016-02-21T12:01:28Z</time>
      </trkpt>
      <trkpt lat="60.002899758431" lon="15.770830924247">
        <ele>113.8</ele>
        <time>2016-02-21T12:01:38Z</time>
      </trkpt>
      <trkpt lat="60.002825830073" lon="15.770797229009">
        <ele>114.4</ele>
        <time>2016-02-21T12:01:41Z</time>
      </trkpt>
      <trkpt lat="60.002629525975" lon="15.770675691459">
        <ele>115.6</ele>
        <time>2016-02-21T12:01:52Z</time>
      </trkpt>
      <trkpt lat="60.002585940095" lon="15.770591118088">
        <ele>116.6</ele>
        <time>2016-02-21T12:01:55Z</time>
      </trkpt>
      <trkpt lat="60.002449818039" lon="15.770479052085">
        <ele>117.2</ele>
        <time>2016-02-21T12:02:03Z</time>
      </trkpt>
      <trkpt lat="60.002404639598" lon="15.770480812284">
        <ele>117.6</ele>
        <time>2016-02-21T12:02:06Z</time>
      </trkpt>
      <trkpt lat="60.002245132041" lon="15.770494642419">
        <ele>118.2</ele>
        <time>2016-02-21T12:02:15Z</time>
      </trkpt>
      <trkpt lat="60.001792341803" lon="15.770574102831">
        <ele>117.6</ele>
        <time>2016-02-21T12:02:32Z</time>
      </trkpt>
      <trkpt lat="60.001648592218" lon="15.770640738936">
        <ele>117.6</ele>
        <time>2016-02-21T12:02:38Z</time>
      </trkpt>
      <trkpt lat="60.001592433488" lon="15.770639984565">
        <ele>117.8</ele>
        <time>2016-02-21T12:02:41Z</time>
      </trkpt>
      <trkpt lat="60.001524875374" lon="15.770663537704">
        <ele>117.8</ele>
        <time>2016-02-21T12:02:45Z</time>
      </trkpt>
      <trkpt lat="60.001147689874" lon="15.770751212378">
        <ele>118.8</ele>
        <time>2016-02-21T12:03:33Z</time>
      </trkpt>
      <trkpt lat="60.001103433442" lon="15.770774011146">
        <ele>119.2</ele>
        <time>2016-02-21T12:03:43Z</time>
      </trkpt>
      <trkpt lat="60.001060685752" lon="15.7707627794">
        <ele>119.8</ele>
        <time>2016-02-21T12:03:45Z</time>
      </trkpt>
      <trkpt lat="60.001040820649" lon="15.770758253174">
        <ele>119.8</ele>
        <time>2016-02-21T12:03:46Z</time>
      </trkpt>
      <trkpt lat="60.001003437375" lon="15.770293057724">
        <ele>121</ele>
        <time>2016-02-21T12:04:00Z</time>
      </trkpt>
      <trkpt lat="60.001092453153" lon="15.769974629343">
        <ele>122.2</ele>
        <time>2016-02-21T12:04:07Z</time>
      </trkpt>
      <trkpt lat="60.001128160047" lon="15.769742283075">
        <ele>123</ele>
        <time>2016-02-21T12:04:13Z</time>
      </trkpt>
      <trkpt lat="60.001142576915" lon="15.769660391912">
        <ele>123.2</ele>
        <time>2016-02-21T12:04:15Z</time>
      </trkpt>
      <trkpt lat="60.001276016763" lon="15.768758750929">
        <ele>124</ele>
        <time>2016-02-21T12:04:32Z</time>
      </trkpt>
      <trkpt lat="60.001486150996" lon="15.767781924303">
        <ele>123.8</ele>
        <time>2016-02-21T12:04:49Z</time>
      </trkpt>
      <trkpt lat="60.001524037184" lon="15.767763987037">
        <ele>124.2</ele>
        <time>2016-02-21T12:04:52Z</time>
      </trkpt>
      <trkpt lat="60.001574580041" lon="15.767808578745">
        <ele>125.2</ele>
        <time>2016-02-21T12:04:55Z</time>
      </trkpt>
      <trkpt lat="60.001653537539" lon="15.767909832097">
        <ele>126.2</ele>
        <time>2016-02-21T12:04:59Z</time>
      </trkpt>
      <trkpt lat="60.001695111763" lon="15.767998764056">
        <ele>127</ele>
        <time>2016-02-21T12:05:04Z</time>
      </trkpt>
      <trkpt lat="60.001722688214" lon="15.768064813428">
        <ele>127.2</ele>
        <time>2016-02-21T12:05:06Z</time>
      </trkpt>
      <trkpt lat="60.001862330668" lon="15.768420792721">
        <ele>126.2</ele>
        <time>2016-02-21T12:05:13Z</time>
      </trkpt>
      <trkpt lat="60.00198872972" lon="15.768880623755">
        <ele>124.8</ele>
        <time>2016-02-21T12:05:23Z</time>
      </trkpt>
      <trkpt lat="60.002040446043" lon="15.768987325342">
        <ele>123.6</ele>
        <time>2016-02-21T12:05:25Z</time>
      </trkpt>
      <trkpt lat="60.002105405768" lon="15.769116741878">
        <ele>122.4</ele>
        <time>2016-02-21T12:05:28Z</time>
      </trkpt>
      <trkpt lat="60.002177573927" lon="15.769247164242">
        <ele>121.2</ele>
        <time>2016-02-21T12:05:30Z</time>
      </trkpt>
      <trkpt lat="60.002278156727" lon="15.769395356234">
        <ele>120</ele>
        <time>2016-02-21T12:05:32Z</time>
      </trkpt>
      <trkpt lat="60.002374045663" lon="15.769578668387">
        <ele>118.4</ele>
        <time>2016-02-21T12:05:34Z</time>
      </trkpt>
      <trkpt lat="60.002550568477" lon="15.769922577744">
        <ele>117.2</ele>
        <time>2016-02-21T12:05:37Z</time>
      </trkpt>
      <trkpt lat="60.00282189058" lon="15.770293393">
        <ele>116</ele>
        <time>2016-02-21T12:05:43Z</time>
      </trkpt>
      <trkpt lat="60.002928508348" lon="15.770365225883">
        <ele>115.6</ele>
        <time>2016-02-21T12:05:45Z</time>
      </trkpt>
      <trkpt lat="60.00307250939" lon="15.770352988309">
        <ele>114.8</ele>
        <time>2016-02-21T12:05:47Z</time>
      </trkpt>
      <trkpt lat="60.003175522941" lon="15.77027830558">
        <ele>113.8</ele>
        <time>2016-02-21T12:05:49Z</time>
      </trkpt>
      <trkpt lat="60.003279877596" lon="15.770091808305">
        <ele>113</ele>
        <time>2016-02-21T12:05:51Z</time>
      </trkpt>
      <trkpt lat="60.003175774398" lon="15.769508763341">
        <ele>115.4</ele>
        <time>2016-02-21T12:06:01Z</time>
      </trkpt>
      <trkpt lat="60.003158759141" lon="15.769490658437">
        <ele>115.8</ele>
        <time>2016-02-21T12:06:02Z</time>
      </trkpt>
      <trkpt lat="60.00300126324" lon="15.768792781443">
        <ele>116</ele>
        <time>2016-02-21T12:06:20Z</time>
      </trkpt>
      <trkpt lat="60.003013416995" lon="15.768712231384">
        <ele>116.6</ele>
        <time>2016-02-21T12:06:22Z</time>
      </trkpt>
      <trkpt lat="60.003073766675" lon="15.768121475072">
        <ele>118.2</ele>
        <time>2016-02-21T12:06:34Z</time>
      </trkpt>
      <trkpt lat="60.003257162647" lon="15.767437009118">
        <ele>117</ele>
        <time>2016-02-21T12:06:50Z</time>
      </trkpt>
      <trkpt lat="60.003381969138" lon="15.767403230061">
        <ele>115.6</ele>
        <time>2016-02-21T12:06:53Z</time>
      </trkpt>
      <trkpt lat="60.003522449782" lon="15.767406750459">
        <ele>114.2</ele>
        <time>2016-02-21T12:06:56Z</time>
      </trkpt>
      <trkpt lat="60.00363828764" lon="15.767404654984">
        <ele>113.2</ele>
        <time>2016-02-21T12:06:58Z</time>
      </trkpt>
      <trkpt lat="60.003768458547" lon="15.767475984953">
        <ele>111.8</ele>
        <time>2016-02-21T12:07:01Z</time>
      </trkpt>
      <trkpt lat="60.003819588137" lon="15.76754999713">
        <ele>110.6</ele>
        <time>2016-02-21T12:07:03Z</time>
      </trkpt>
      <trkpt lat="60.003851523176" lon="15.767769351453">
        <ele>109.6</ele>
        <time>2016-02-21T12:07:07Z</time>
      </trkpt>
      <trkpt lat="60.004007258878" lon="15.768533026362">
        <ele>111</ele>
        <time>2016-02-21T12:07:24Z</time>
      </trkpt>
      <trkpt lat="60.004016395149" lon="15.768605529797">
        <ele>111.4</ele>
        <time>2016-02-21T12:07:26Z</time>
      </trkpt>
      <trkpt lat="60.004082863616" lon="15.768747519183">
        <ele>112</ele>
        <time>2016-02-21T12:07:30Z</time>
      </trkpt>
      <trkpt lat="60.00453515094" lon="15.768998724726">
        <ele>111.4</ele>
        <time>2016-02-21T12:07:54Z</time>
      </trkpt>
      <trkpt lat="60.00459969157" lon="15.768978356709">
        <ele>110.8</ele>
        <time>2016-02-21T12:07:56Z</time>
      </trkpt>
      <trkpt lat="60.004668255512" lon="15.76894306891">
        <ele>110.4</ele>
        <time>2016-02-21T12:07:58Z</time>
      </trkpt>
      <trkpt lat="60.004793062003" lon="15.768815244935">
        <ele>109.4</ele>
        <time>2016-02-21T12:08:01Z</time>
      </trkpt>
      <trkpt lat="60.004888699482" lon="15.768713823945">
        <ele>108.2</ele>
        <time>2016-02-21T12:08:03Z</time>
      </trkpt>
      <trkpt lat="60.005020630588" lon="15.768703765665">
        <ele>107</ele>
        <time>2016-02-21T12:08:05Z</time>
      </trkpt>
      <trkpt lat="60.005144095975" lon="15.768757996558">
        <ele>105.8</ele>
        <time>2016-02-21T12:08:07Z</time>
      </trkpt>
      <trkpt lat="60.005251971028" lon="15.768846257965">
        <ele>104.8</ele>
        <time>2016-02-21T12:08:09Z</time>
      </trkpt>
      <trkpt lat="60.005339980978" lon="15.768933513544">
        <ele>103</ele>
        <time>2016-02-21T12:08:11Z</time>
      </trkpt>
      <trkpt lat="60.00546218908" lon="15.769051279239">
        <ele>101.8</ele>
        <time>2016-02-21T12:08:14Z</time>
      </trkpt>
      <trkpt lat="60.005644160129" lon="15.769108276159">
        <ele>100.6</ele>
        <time>2016-02-21T12:08:18Z</time>
      </trkpt>
      <trkpt lat="60.005691936959" lon="15.769101738277">
        <ele>100.4</ele>
        <time>2016-02-21T12:08:19Z</time>
      </trkpt>
      <trkpt lat="60.005822024047" lon="15.768921192151">
        <ele>99.6</ele>
        <time>2016-02-21T12:08:23Z</time>
      </trkpt>
      <trkpt lat="60.005846750652" lon="15.768754811436">
        <ele>99</ele>
        <time>2016-02-21T12:08:26Z</time>
      </trkpt>
      <trkpt lat="60.005413322603" lon="15.768624891986">
        <ele>98.8</ele>
        <time>2016-02-21T12:08:43Z</time>
      </trkpt>
      <trkpt lat="60.004974530138" lon="15.768357341738">
        <ele>99.6</ele>
        <time>2016-02-21T12:09:01Z</time>
      </trkpt>
      <trkpt lat="60.004591812584" lon="15.767898097437">
        <ele>100.6</ele>
        <time>2016-02-21T12:09:21Z</time>
      </trkpt>
      <trkpt lat="60.004518219502" lon="15.767852080806">
        <ele>102</ele>
        <time>2016-02-21T12:09:25Z</time>
      </trkpt>
      <trkpt lat="60.004374386098" lon="15.767717886587">
        <ele>102.6</ele>
        <time>2016-02-21T12:09:34Z</time>
      </trkpt>
      <trkpt lat="60.004355023909" lon="15.767695674552">
        <ele>103.2</ele>
        <time>2016-02-21T12:09:36Z</time>
      </trkpt>
      <trkpt lat="60.004125024573" lon="15.767359057448">
        <ele>104.4</ele>
        <time>2016-02-21T12:09:51Z</time>
      </trkpt>
      <trkpt lat="60.003902233671" lon="15.767143642618">
        <ele>105.2</ele>
        <time>2016-02-21T12:10:01Z</time>
      </trkpt>
      <trkpt lat="60.003616578519" lon="15.766774168466">
        <ele>103.2</ele>
        <time>2016-02-21T12:10:11Z</time>
      </trkpt>
      <trkpt lat="60.00351088276" lon="15.766629329234">
        <ele>102.2</ele>
        <time>2016-02-21T12:10:15Z</time>
      </trkpt>
      <trkpt lat="60.003169823249" lon="15.766248371879">
        <ele>103.2</ele>
        <time>2016-02-21T12:10:24Z</time>
      </trkpt>
      <trkpt lat="60.002984583259" lon="15.765960034519">
        <ele>104.2</ele>
        <time>2016-02-21T12:10:34Z</time>
      </trkpt>
      <trkpt lat="60.002857346017" lon="15.765341869394">
        <ele>103.2</ele>
        <time>2016-02-21T12:10:44Z</time>
      </trkpt>
      <trkpt lat="60.002595160185" lon="15.764559754305">
        <ele>102.2</ele>
        <time>2016-02-21T12:10:59Z</time>
      </trkpt>
      <trkpt lat="60.002452584066" lon="15.764408209553">
        <ele>102.2</ele>
        <time>2016-02-21T12:11:08Z</time>
      </trkpt>
      <trkpt lat="60.002331297973" lon="15.764826550182">
        <ele>103.2</ele>
        <time>2016-02-21T12:11:20Z</time>
      </trkpt>
      <trkpt lat="60.002283688781" lon="15.76491891872">
        <ele>103.2</ele>
        <time>2016-02-21T12:11:26Z</time>
      </trkpt>
      <trkpt lat="60.002273295225" lon="15.765010700525">
        <ele>104.4</ele>
        <time>2016-02-21T12:11:31Z</time>
      </trkpt>
      <trkpt lat="60.002246305507" lon="15.76505051455">
        <ele>105.2</ele>
        <time>2016-02-21T12:11:34Z</time>
      </trkpt>
      <trkpt lat="60.002235325218" lon="15.765056884794">
        <ele>105.4</ele>
        <time>2016-02-21T12:11:35Z</time>
      </trkpt>
      <trkpt lat="60.002151003304" lon="15.765153947196">
        <ele>106.2</ele>
        <time>2016-02-21T12:11:42Z</time>
      </trkpt>
      <trkpt lat="60.002099957533" lon="15.765170878634">
        <ele>106.6</ele>
        <time>2016-02-21T12:11:44Z</time>
      </trkpt>
      <trkpt lat="60.002034997808" lon="15.76520390332">
        <ele>107.8</ele>
        <time>2016-02-21T12:11:48Z</time>
      </trkpt>
      <trkpt lat="60.001949837704" lon="15.765221253853">
        <ele>108.4</ele>
        <time>2016-02-21T12:11:53Z</time>
      </trkpt>
      <trkpt lat="60.001906503281" lon="15.765250758141">
        <ele>108.8</ele>
        <time>2016-02-21T12:11:55Z</time>
      </trkpt>
      <trkpt lat="60.001815056752" lon="15.765254697634">
        <ele>109.4</ele>
        <time>2016-02-21T12:12:01Z</time>
      </trkpt>
      <trkpt lat="60.001787983215" lon="15.765239777852">
        <ele>110</ele>
        <time>2016-02-21T12:12:03Z</time>
      </trkpt>
      <trkpt lat="60.001716066513" lon="15.765207926632">
        <ele>111</ele>
        <time>2016-02-21T12:12:09Z</time>
      </trkpt>
      <trkpt lat="60.001642138155" lon="15.765116899198">
        <ele>112</ele>
        <time>2016-02-21T12:12:18Z</time>
      </trkpt>
      <trkpt lat="60.001622859785" lon="15.765090160937">
        <ele>112.6</ele>
        <time>2016-02-21T12:12:21Z</time>
      </trkpt>
      <trkpt lat="60.001604251967" lon="15.765078426277">
        <ele>113</ele>
        <time>2016-02-21T12:12:23Z</time>
      </trkpt>
      <trkpt lat="60.001498053294" lon="15.765083539236">
        <ele>114</ele>
        <time>2016-02-21T12:12:33Z</time>
      </trkpt>
      <trkpt lat="60.001455808518" lon="15.765155120662">
        <ele>114.2</ele>
        <time>2016-02-21T12:12:36Z</time>
      </trkpt>
      <trkpt lat="60.001340892669" lon="15.765320663187">
        <ele>115.2</ele>
        <time>2016-02-21T12:12:44Z</time>
      </trkpt>
      <trkpt lat="60.001284901577" lon="15.765801784247">
        <ele>116.4</ele>
        <time>2016-02-21T12:13:00Z</time>
      </trkpt>
      <trkpt lat="60.001283895749" lon="15.765957184673">
        <ele>117.4</ele>
        <time>2016-02-21T12:13:04Z</time>
      </trkpt>
      <trkpt lat="60.001318345358" lon="15.7660689154">
        <ele>118.4</ele>
        <time>2016-02-21T12:13:09Z</time>
      </trkpt>
      <trkpt lat="60.001330080018" lon="15.766088445227">
        <ele>118.6</ele>
        <time>2016-02-21T12:13:10Z</time>
      </trkpt>
      <trkpt lat="60.001377437753" lon="15.76615357259">
        <ele>119</ele>
        <time>2016-02-21T12:13:13Z</time>
      </trkpt>
      <trkpt lat="60.001421861823" lon="15.766277708529">
        <ele>119.6</ele>
        <time>2016-02-21T12:13:18Z</time>
      </trkpt>
      <trkpt lat="60.001442816573" lon="15.766387930514">
        <ele>120.8</ele>
        <time>2016-02-21T12:13:22Z</time>
      </trkpt>
      <trkpt lat="60.001465112427" lon="15.766626730845">
        <ele>121.8</ele>
        <time>2016-02-21T12:13:30Z</time>
      </trkpt>
      <trkpt lat="60.001451030835" lon="15.766863016606">
        <ele>122.8</ele>
        <time>2016-02-21T12:13:36Z</time>
      </trkpt>
      <trkpt lat="60.001362434152" lon="15.767758538802">
        <ele>123</ele>
        <time>2016-02-21T12:13:52Z</time>
      </trkpt>
      <trkpt lat="60.001355225718" lon="15.767986610301">
        <ele>123</ele>
        <time>2016-02-21T12:13:56Z</time>
      </trkpt>
      <trkpt lat="60.001254894375" lon="15.768637213379">
        <ele>124</ele>
        <time>2016-02-21T12:14:10Z</time>
      </trkpt>
      <trkpt lat="60.001241315697" lon="15.768848269621">
        <ele>124</ele>
        <time>2016-02-21T12:14:14Z</time>
      </trkpt>
      <trkpt lat="60.001110893333" lon="15.769755358839">
        <ele>123.6</ele>
        <time>2016-02-21T12:14:30Z</time>
      </trkpt>
      <trkpt lat="60.001037719346" lon="15.770181662273">
        <ele>122.8</ele>
        <time>2016-02-21T12:14:36Z</time>
      </trkpt>
      <trkpt lat="60.000916349434" lon="15.770466730692">
        <ele>122</ele>
        <time>2016-02-21T12:14:43Z</time>
      </trkpt>
      <trkpt lat="60.000664054244" lon="15.770354497051">
        <ele>124</ele>
        <time>2016-02-21T12:14:55Z</time>
      </trkpt>
      <trkpt lat="60.000627592979" lon="15.770336727423">
        <ele>125</ele>
        <time>2016-02-21T12:14:57Z</time>
      </trkpt>
      <trkpt lat="60.00056967405" lon="15.770263888712">
        <ele>125.4</ele>
        <time>2016-02-21T12:15:01Z</time>
      </trkpt>
      <trkpt lat="60.000546707644" lon="15.770241928134">
        <ele>126.4</ele>
        <time>2016-02-21T12:15:02Z</time>
      </trkpt>
      <trkpt lat="60.00029474773" lon="15.769708168742">
        <ele>127</ele>
        <time>2016-02-21T12:15:19Z</time>
      </trkpt>
      <trkpt lat="60.000256274809" lon="15.769632144909">
        <ele>127.6</ele>
        <time>2016-02-21T12:15:22Z</time>
      </trkpt>
      <trkpt lat="60.000238253724" lon="15.769606999209">
        <ele>128.2</ele>
        <time>2016-02-21T12:15:23Z</time>
      </trkpt>
      <trkpt lat="60.000226351426" lon="15.769578584568">
        <ele>128.8</ele>
        <time>2016-02-21T12:15:24Z</time>
      </trkpt>
      <trkpt lat="60.000166001746" lon="15.769512116101">
        <ele>129.8</ele>
        <time>2016-02-21T12:15:28Z</time>
      </trkpt>
      <trkpt lat="59.999949329631" lon="15.769277255263">
        <ele>131</ele>
        <time>2016-02-21T12:15:39Z</time>
      </trkpt>
      <trkpt lat="59.999859224206" lon="15.76920123143">
        <ele>132</ele>
        <time>2016-02-21T12:15:43Z</time>
      </trkpt>
      <trkpt lat="59.999740955597" lon="15.768941895444">
        <ele>133.2</ele>
        <time>2016-02-21T12:15:53Z</time>
      </trkpt>
      <trkpt lat="59.999668116886" lon="15.768743831147">
        <ele>133.4</ele>
        <time>2016-02-21T12:15:59Z</time>
      </trkpt>
      <trkpt lat="59.999574407244" lon="15.768583233943">
        <ele>134.2</ele>
        <time>2016-02-21T12:16:04Z</time>
      </trkpt>
      <trkpt lat="59.999514309021" lon="15.768441412195">
        <ele>134.6</ele>
        <time>2016-02-21T12:16:08Z</time>
      </trkpt>
      <trkpt lat="59.999618747495" lon="15.76754496799">
        <ele>133.6</ele>
        <time>2016-02-21T12:16:22Z</time>
      </trkpt>
      <trkpt lat="59.999663423022" lon="15.767392836505">
        <ele>133.2</ele>
        <time>2016-02-21T12:16:25Z</time>
      </trkpt>
      <trkpt lat="59.999844388243" lon="15.766553640677">
        <ele>133.6</ele>
        <time>2016-02-21T12:16:42Z</time>
      </trkpt>
      <trkpt lat="59.999967266897" lon="15.765641689957">
        <ele>132</ele>
        <time>2016-02-21T12:16:58Z</time>
      </trkpt>
      <trkpt lat="59.999951844201" lon="15.764804757242">
        <ele>131.2</ele>
        <time>2016-02-21T12:17:13Z</time>
      </trkpt>
      <trkpt lat="59.999926530863" lon="15.764751699815">
        <ele>130.8</ele>
        <time>2016-02-21T12:17:14Z</time>
      </trkpt>
      <trkpt lat="59.999726203453" lon="15.764372586478">
        <ele>131.4</ele>
        <time>2016-02-21T12:17:27Z</time>
      </trkpt>
      <trkpt lat="59.999654622027" lon="15.764103611307">
        <ele>130.2</ele>
        <time>2016-02-21T12:17:32Z</time>
      </trkpt>
      <trkpt lat="59.999695022785" lon="15.763983750137">
        <ele>129.8</ele>
        <time>2016-02-21T12:17:34Z</time>
      </trkpt>
      <trkpt lat="59.999789738255" lon="15.763870845944">
        <ele>128.6</ele>
        <time>2016-02-21T12:17:37Z</time>
      </trkpt>
      <trkpt lat="59.999828127357" lon="15.763836228697">
        <ele>128.2</ele>
        <time>2016-02-21T12:17:38Z</time>
      </trkpt>
      <trkpt lat="59.999915299117" lon="15.763803371649">
        <ele>127.6</ele>
        <time>2016-02-21T12:17:40Z</time>
      </trkpt>
      <trkpt lat="59.999963243585" lon="15.763816279775">
        <ele>127.4</ele>
        <time>2016-02-21T12:17:41Z</time>
      </trkpt>
      <trkpt lat="60.000007164741" lon="15.763850729384">
        <ele>127.2</ele>
        <time>2016-02-21T12:17:42Z</time>
      </trkpt>
      <trkpt lat="60.000117219088" lon="15.763949719623">
        <ele>126.4</ele>
        <time>2016-02-21T12:17:45Z</time>
      </trkpt>
      <trkpt lat="60.000168851592" lon="15.764005878353">
        <ele>125.2</ele>
        <time>2016-02-21T12:17:47Z</time>
      </trkpt>
      <trkpt lat="60.000370855382" lon="15.764215593491">
        <ele>124.2</ele>
        <time>2016-02-21T12:17:54Z</time>
      </trkpt>
      <trkpt lat="60.000467582508" lon="15.764299663948">
        <ele>123</ele>
        <time>2016-02-21T12:17:57Z</time>
      </trkpt>
      <trkpt lat="60.000544276893" lon="15.76433553848">
        <ele>121.4</ele>
        <time>2016-02-21T12:17:59Z</time>
      </trkpt>
      <trkpt lat="60.000637483621" lon="15.764368563166">
        <ele>120</ele>
        <time>2016-02-21T12:18:01Z</time>
      </trkpt>
      <trkpt lat="60.00074820852" lon="15.764411143218">
        <ele>118.2</ele>
        <time>2016-02-21T12:18:03Z</time>
      </trkpt>
      <trkpt lat="60.000886174594" lon="15.764446598655">
        <ele>116.6</ele>
        <time>2016-02-21T12:18:05Z</time>
      </trkpt>
      <trkpt lat="60.000961444056" lon="15.764450538148">
        <ele>116</ele>
        <time>2016-02-21T12:18:06Z</time>
      </trkpt>
      <trkpt lat="60.001053644956" lon="15.764457243668">
        <ele>115.4</ele>
        <time>2016-02-21T12:18:07Z</time>
      </trkpt>
      <trkpt lat="60.001130339341" lon="15.764420363308">
        <ele>115</ele>
        <time>2016-02-21T12:18:08Z</time>
      </trkpt>
      <trkpt lat="60.00131733953" lon="15.764278709198">
        <ele>114.2</ele>
        <time>2016-02-21T12:18:11Z</time>
      </trkpt>
      <trkpt lat="60.001339719203" lon="15.764225903228">
        <ele>114.2</ele>
        <time>2016-02-21T12:18:12Z</time>
      </trkpt>
      <trkpt lat="60.001521941709" lon="15.763577563263">
        <ele>113</ele>
        <time>2016-02-21T12:18:20Z</time>
      </trkpt>
      <trkpt lat="60.001572400747" lon="15.763457618274">
        <ele>112.4</ele>
        <time>2016-02-21T12:18:21Z</time>
      </trkpt>
      <trkpt lat="60.001620512853" lon="15.763345468452">
        <ele>111.8</ele>
        <time>2016-02-21T12:18:22Z</time>
      </trkpt>
      <trkpt lat="60.001678431782" lon="15.76325930252">
        <ele>110.8</ele>
        <time>2016-02-21T12:18:23Z</time>
      </trkpt>
      <trkpt lat="60.001733417046" lon="15.763216219554">
        <ele>110.2</ele>
        <time>2016-02-21T12:18:24Z</time>
      </trkpt>
      <trkpt lat="60.001794437278" lon="15.763202054143">
        <ele>109.4</ele>
        <time>2016-02-21T12:18:25Z</time>
      </trkpt>
      <trkpt lat="60.001849925456" lon="15.763212196242">
        <ele>108.8</ele>
        <time>2016-02-21T12:18:26Z</time>
      </trkpt>
      <trkpt lat="60.001899211028" lon="15.763231893707">
        <ele>108</ele>
        <time>2016-02-21T12:18:27Z</time>
      </trkpt>
      <trkpt lat="60.001949083333" lon="15.763262320004">
        <ele>107.2</ele>
        <time>2016-02-21T12:18:28Z</time>
      </trkpt>
      <trkpt lat="60.002156619177" lon="15.763423252484">
        <ele>106</ele>
        <time>2016-02-21T12:18:31Z</time>
      </trkpt>
      <trkpt lat="60.00239944282" lon="15.763702621211">
        <ele>105</ele>
        <time>2016-02-21T12:18:37Z</time>
      </trkpt>
      <trkpt lat="60.002645619223" lon="15.764109730094">
        <ele>103.8</ele>
        <time>2016-02-21T12:18:46Z</time>
      </trkpt>
      <trkpt lat="60.002810407377" lon="15.765025201212">
        <ele>103</ele>
        <time>2016-02-21T12:18:59Z</time>
      </trkpt>
      <trkpt lat="60.002820884752" lon="15.765101057407">
        <ele>102.8</ele>
        <time>2016-02-21T12:19:00Z</time>
      </trkpt>
      <trkpt lat="60.002918952982" lon="15.765510094127">
        <ele>104</ele>
        <time>2016-02-21T12:19:09Z</time>
      </trkpt>
      <trkpt lat="60.002942087026" lon="15.765578071336">
        <ele>104.4</ele>
        <time>2016-02-21T12:19:11Z</time>
      </trkpt>
      <trkpt lat="60.003336287783" lon="15.76608232644">
        <ele>103.6</ele>
        <time>2016-02-21T12:19:26Z</time>
      </trkpt>
      <trkpt lat="60.003745324503" lon="15.766427995996">
        <ele>104.2</ele>
        <time>2016-02-21T12:19:44Z</time>
      </trkpt>
      <trkpt lat="60.004048833102" lon="15.766924372114">
        <ele>104.8</ele>
        <time>2016-02-21T12:20:07Z</time>
      </trkpt>
      <trkpt lat="60.004123180555" lon="15.7670747434">
        <ele>105</ele>
        <time>2016-02-21T12:20:12Z</time>
      </trkpt>
      <trkpt lat="60.004373799365" lon="15.767524767611">
        <ele>103.8</ele>
        <time>2016-02-21T12:20:24Z</time>
      </trkpt>
      <trkpt lat="60.00453682732" lon="15.767655860527">
        <ele>102.8</ele>
        <time>2016-02-21T12:20:29Z</time>
      </trkpt>
      <trkpt lat="60.0046893779" lon="15.76781570336">
        <ele>101.6</ele>
        <time>2016-02-21T12:20:34Z</time>
      </trkpt>
      <trkpt lat="60.004840168281" lon="15.767968421578">
        <ele>100.4</ele>
        <time>2016-02-21T12:20:37Z</time>
      </trkpt>
      <trkpt lat="60.005263286593" lon="15.76839656903">
        <ele>99.6</ele>
        <time>2016-02-21T12:20:48Z</time>
      </trkpt>
      <trkpt lat="60.005667461811" lon="15.768499917857">
        <ele>99.2</ele>
        <time>2016-02-21T12:21:01Z</time>
      </trkpt>
      <trkpt lat="60.005929647643" lon="15.769079442423">
        <ele>99.2</ele>
        <time>2016-02-21T12:21:17Z</time>
      </trkpt>
      <trkpt lat="60.00585530019" lon="15.769838674925">
        <ele>100.2</ele>
        <time>2016-02-21T12:21:34Z</time>
      </trkpt>
      <trkpt lat="60.005832333784" lon="15.769929115626">
        <ele>101.4</ele>
        <time>2016-02-21T12:21:39Z</time>
      </trkpt>
      <trkpt lat="60.005677520091" lon="15.76992039845">
        <ele>102.6</ele>
        <time>2016-02-21T12:21:48Z</time>
      </trkpt>
      <trkpt lat="60.005395050061" lon="15.769935318232">
        <ele>103.6</ele>
        <time>2016-02-21T12:22:02Z</time>
      </trkpt>
      <trkpt lat="60.005198913601" lon="15.769945879426">
        <ele>104.2</ele>
        <time>2016-02-21T12:22:12Z</time>
      </trkpt>
      <trkpt lat="60.005045692469" lon="15.770057191058">
        <ele>104.6</ele>
        <time>2016-02-21T12:22:21Z</time>
      </trkpt>
      <trkpt lat="60.005024737719" lon="15.770073284306">
        <ele>104.8</ele>
        <time>2016-02-21T12:22:22Z</time>
      </trkpt>
      <trkpt lat="60.004831199648" lon="15.770340750735">
        <ele>106</ele>
        <time>2016-02-21T12:22:36Z</time>
      </trkpt>
      <trkpt lat="60.004749476123" lon="15.770430772341">
        <ele>106.2</ele>
        <time>2016-02-21T12:22:42Z</time>
      </trkpt>
      <trkpt lat="60.004346725828" lon="15.770356760164">
        <ele>107.2</ele>
        <time>2016-02-21T12:22:57Z</time>
      </trkpt>
      <trkpt lat="60.004262487733" lon="15.770368494824">
        <ele>108.2</ele>
        <time>2016-02-21T12:23:01Z</time>
      </trkpt>
      <trkpt lat="60.004240024241" lon="15.770382492597">
        <ele>108.2</ele>
        <time>2016-02-21T12:23:02Z</time>
      </trkpt>
      <trkpt lat="60.004194426705" lon="15.770459270801">
        <ele>108.2</ele>
        <time>2016-02-21T12:23:05Z</time>
      </trkpt>
      <trkpt lat="60.004159977096" lon="15.770862440191">
        <ele>107.2</ele>
        <time>2016-02-21T12:23:13Z</time>
      </trkpt>
      <trkpt lat="60.004178584914" lon="15.771023791766">
        <ele>106.8</ele>
        <time>2016-02-21T12:23:15Z</time>
      </trkpt>
      <trkpt lat="60.004230804151" lon="15.771201404227">
        <ele>106.2</ele>
        <time>2016-02-21T12:23:17Z</time>
      </trkpt>
      <trkpt lat="60.00426106281" lon="15.771280194087">
        <ele>105.8</ele>
        <time>2016-02-21T12:23:18Z</time>
      </trkpt>
      <trkpt lat="60.004357706117" lon="15.771463087145">
        <ele>104.8</ele>
        <time>2016-02-21T12:23:21Z</time>
      </trkpt>
      <trkpt lat="60.004454517062" lon="15.771505834835">
        <ele>103.8</ele>
        <time>2016-02-21T12:23:26Z</time>
      </trkpt>
      <trkpt lat="60.004479998038" lon="15.771468703018">
        <ele>103.6</ele>
        <time>2016-02-21T12:23:28Z</time>
      </trkpt>
    </trkseg>
  </trk>
</gpx>